sensor_id;sensor_type;location;lat;lon;timestamp;pressure;altitude;pressure_sealevel;temperature;humidity
81232;BME280;70703;55.652;37.710;2023-09-19T00:00:11;100769.44;;;14.23;69.58
81232;BME280;70703;55.652;37.710;2023-09-19T00:00:23;100775.69;;;14.24;69.61
81232;BME280;70703;55.652;37.710;2023-09-19T00:00:38;100773.34;;;14.21;69.36
81232;BME280;70703;55.652;37.710;2023-09-19T00:00:56;100771.31;;;14.23;69.46
81232;BME280;70703;55.652;37.710;2023-09-19T00:01:07;100770.28;;;14.24;69.42
81232;BME280;70703;55.652;37.710;2023-09-19T00:01:21;100777.72;;;14.22;69.58
81232;BME280;70703;55.652;37.710;2023-09-19T00:01:34;100777.91;;;14.20;69.26
81232;BME280;70703;55.652;37.710;2023-09-19T00:01:47;100772.69;;;14.19;69.42
81232;BME280;70703;55.652;37.710;2023-09-19T00:01:58;100774.09;;;14.15;69.46
81232;BME280;70703;55.652;37.710;2023-09-19T00:02:10;100776.59;;;14.16;69.54
81232;BME280;70703;55.652;37.710;2023-09-19T00:02:23;100778.47;;;14.16;69.38
81232;BME280;70703;55.652;37.710;2023-09-19T00:02:35;100779.47;;;14.15;69.47
81232;BME280;70703;55.652;37.710;2023-09-19T00:02:52;100767.78;;;14.07;69.28
81232;BME280;70703;55.652;37.710;2023-09-19T00:03:06;100778.66;;;14.14;69.33
81232;BME280;70703;55.652;37.710;2023-09-19T00:03:18;100770.78;;;14.13;69.16
81232;BME280;70703;55.652;37.710;2023-09-19T00:03:29;100724.41;;;13.81;69.27
81232;BME280;70703;55.652;37.710;2023-09-19T00:03:43;100780.50;;;14.14;69.49
81232;BME280;70703;55.652;37.710;2023-09-19T00:03:56;100774.09;;;14.15;69.06
81232;BME280;70703;55.652;37.710;2023-09-19T00:04:08;100775.97;;;14.14;69.12
81232;BME280;70703;55.652;37.710;2023-09-19T00:04:21;100779.47;;;14.15;69.17
81232;BME280;70703;55.652;37.710;2023-09-19T00:04:40;100782.84;;;14.17;69.15
81232;BME280;70703;55.652;37.710;2023-09-19T00:04:54;100768.28;;;14.11;69.12
81232;BME280;70703;55.652;37.710;2023-09-19T00:05:07;100774.09;;;14.15;68.94
81232;BME280;70703;55.652;37.710;2023-09-19T00:05:20;100769.38;;;14.17;68.70
81232;BME280;70703;55.652;37.710;2023-09-19T00:05:36;100779.94;;;14.18;68.73
81232;BME280;70703;55.652;37.710;2023-09-19T00:05:50;100765.66;;;14.18;68.66
81232;BME280;70703;55.652;37.710;2023-09-19T00:06:01;100771.22;;;14.16;68.62
81232;BME280;70703;55.652;37.710;2023-09-19T00:06:12;100765.75;;;14.09;68.57
81232;BME280;70703;55.652;37.710;2023-09-19T00:06:28;100770.41;;;14.16;68.66
81232;BME280;70703;55.652;37.710;2023-09-19T00:06:42;100773.91;;;14.16;68.87
81232;BME280;70703;55.652;37.710;2023-09-19T00:06:55;100774.28;;;14.13;68.69
81232;BME280;70703;55.652;37.710;2023-09-19T00:07:07;100774.09;;;14.15;68.38
81232;BME280;70703;55.652;37.710;2023-09-19T00:07:19;100764.09;;;14.08;68.46
81232;BME280;70703;55.652;37.710;2023-09-19T00:07:34;100770.78;;;14.13;68.71
81232;BME280;70703;55.652;37.710;2023-09-19T00:07:48;100763.63;;;14.05;68.58
81232;BME280;70703;55.652;37.710;2023-09-19T00:08:02;100769.28;;;14.10;68.61
81232;BME280;70703;55.652;37.710;2023-09-19T00:08:16;100765.75;;;14.09;68.58
81232;BME280;70703;55.652;37.710;2023-09-19T00:08:34;100764.09;;;14.08;68.51
81232;BME280;70703;55.652;37.710;2023-09-19T00:08:46;100767.41;;;14.10;68.44
81232;BME280;70703;55.652;37.710;2023-09-19T00:08:59;100770.59;;;14.14;68.38
81232;BME280;70703;55.652;37.710;2023-09-19T00:09:11;100768.72;;;14.15;68.24
81232;BME280;70703;55.652;37.710;2023-09-19T00:09:23;100769.72;;;14.14;68.45
81232;BME280;70703;55.652;37.710;2023-09-19T00:09:38;100773.09;;;14.16;68.23
81232;BME280;70703;55.652;37.710;2023-09-19T00:09:51;100768.72;;;14.15;68.40
81232;BME280;70703;55.652;37.710;2023-09-19T00:10:07;100759.63;;;14.16;68.36
81232;BME280;70703;55.652;37.710;2023-09-19T00:10:20;100765.00;;;14.16;68.34
81232;BME280;70703;55.652;37.710;2023-09-19T00:10:35;100772.22;;;14.15;68.28
81232;BME280;70703;55.652;37.710;2023-09-19T00:10:46;100757.50;;;14.11;68.13
81232;BME280;70703;55.652;37.710;2023-09-19T00:10:59;100734.50;;;13.93;68.35
81232;BME280;70703;55.652;37.710;2023-09-19T00:11:17;100767.91;;;14.14;68.24
81232;BME280;70703;55.652;37.710;2023-09-19T00:11:28;100765.00;;;14.16;68.27
81232;BME280;70703;55.652;37.710;2023-09-19T00:11:39;100765.00;;;14.16;68.19
81232;BME280;70703;55.652;37.710;2023-09-19T00:11:53;100770.22;;;14.17;68.34
81232;BME280;70703;55.652;37.710;2023-09-19T00:12:06;100779.09;;;14.18;68.15
81232;BME280;70703;55.652;37.710;2023-09-19T00:12:20;100771.69;;;14.20;68.36
81232;BME280;70703;55.652;37.710;2023-09-19T00:12:32;100761.03;;;14.12;68.33
81232;BME280;70703;55.652;37.710;2023-09-19T00:12:44;100770.00;;;14.19;68.20
81232;BME280;70703;55.652;37.710;2023-09-19T00:12:57;100762.88;;;14.11;68.17
81232;BME280;70703;55.652;37.710;2023-09-19T00:13:11;100774.56;;;14.18;68.22
81232;BME280;70703;55.652;37.710;2023-09-19T00:13:24;100772.69;;;14.19;68.04
81232;BME280;70703;55.652;37.710;2023-09-19T00:13:37;100772.69;;;14.19;68.30
81232;BME280;70703;55.652;37.710;2023-09-19T00:13:49;100775.41;;;14.19;68.27
81232;BME280;70703;55.652;37.710;2023-09-19T00:14:01;100774.56;;;14.18;68.19
81232;BME280;70703;55.652;37.710;2023-09-19T00:14:14;100774.56;;;14.18;68.11
81232;BME280;70703;55.652;37.710;2023-09-19T00:14:27;100773.09;;;14.16;68.10
81232;BME280;70703;55.652;37.710;2023-09-19T00:14:38;100766.41;;;14.12;68.20
81232;BME280;70703;55.652;37.710;2023-09-19T00:14:51;100776.22;;;14.19;68.23
81232;BME280;70703;55.652;37.710;2023-09-19T00:15:06;100777.06;;;14.20;67.94
81232;BME280;70703;55.652;37.710;2023-09-19T00:15:21;100772.91;;;14.17;68.06
81232;BME280;70703;55.652;37.710;2023-09-19T00:15:37;100757.03;;;14.07;68.32
81232;BME280;70703;55.652;37.710;2023-09-19T00:15:49;100777.06;;;14.20;68.10
81232;BME280;70703;55.652;37.710;2023-09-19T00:16:01;100769.53;;;14.15;68.25
81232;BME280;70703;55.652;37.710;2023-09-19T00:16:19;100775.41;;;14.19;68.28
81232;BME280;70703;55.652;37.710;2023-09-19T00:16:33;100779.75;;;14.20;68.27
81232;BME280;70703;55.652;37.710;2023-09-19T00:16:45;100773.53;;;14.19;68.28
81232;BME280;70703;55.652;37.710;2023-09-19T00:16:58;100778.09;;;14.19;68.19
81232;BME280;70703;55.652;37.710;2023-09-19T00:17:11;100777.44;;;14.17;68.27
81232;BME280;70703;55.652;37.710;2023-09-19T00:17:23;100729.03;;;13.87;68.45
81232;BME280;70703;55.652;37.710;2023-09-19T00:17:35;100770.00;;;14.19;68.17
81232;BME280;70703;55.652;37.710;2023-09-19T00:17:48;100775.78;;;14.16;68.13
81232;BME280;70703;55.652;37.710;2023-09-19T00:17:59;100774.09;;;14.15;68.42
81232;BME280;70703;55.652;37.710;2023-09-19T00:18:11;100778.09;;;14.19;68.33
81232;BME280;70703;55.652;37.710;2023-09-19T00:18:24;100770.78;;;14.13;68.30
81232;BME280;70703;55.652;37.710;2023-09-19T00:18:39;100780.78;;;14.19;68.37
81232;BME280;70703;55.652;37.710;2023-09-19T00:18:51;100769.19;;;14.18;68.46
81232;BME280;70703;55.652;37.710;2023-09-19T00:19:03;100761.59;;;14.07;68.21
81232;BME280;70703;55.652;37.710;2023-09-19T00:19:15;100773.09;;;14.16;68.10
81232;BME280;70703;55.652;37.710;2023-09-19T00:19:28;100780.78;;;14.19;68.10
81232;BME280;70703;55.652;37.710;2023-09-19T00:19:40;100756.22;;;14.07;68.25
81232;BME280;70703;55.652;37.710;2023-09-19T00:19:54;100771.88;;;14.18;68.13
81232;BME280;70703;55.652;37.710;2023-09-19T00:20:07;100773.72;;;14.18;68.05
81232;BME280;70703;55.652;37.710;2023-09-19T00:20:23;100776.22;;;14.19;68.07
81232;BME280;70703;55.652;37.710;2023-09-19T00:20:35;100765.00;;;14.16;68.09
81232;BME280;70703;55.652;37.710;2023-09-19T00:20:47;100775.41;;;14.19;68.19
81232;BME280;70703;55.652;37.710;2023-09-19T00:21:00;100765.84;;;14.16;68.13
81232;BME280;70703;55.652;37.710;2023-09-19T00:21:12;100776.41;;;14.18;68.20
81232;BME280;70703;55.652;37.710;2023-09-19T00:21:23;100766.41;;;14.12;68.30
81232;BME280;70703;55.652;37.710;2023-09-19T00:21:35;100779.94;;;14.18;68.13
81232;BME280;70703;55.652;37.710;2023-09-19T00:21:49;100775.59;;;14.17;68.22
81232;BME280;70703;55.652;37.710;2023-09-19T00:22:02;100764.53;;;14.12;68.26
81232;BME280;70703;55.652;37.710;2023-09-19T00:22:13;100769.09;;;14.12;68.25
81232;BME280;70703;55.652;37.710;2023-09-19T00:22:28;100776.78;;;14.15;68.25
81232;BME280;70703;55.652;37.710;2023-09-19T00:22:41;100771.59;;;14.13;68.16
81232;BME280;70703;55.652;37.710;2023-09-19T00:22:53;100769.53;;;14.15;68.35
81232;BME280;70703;55.652;37.710;2023-09-19T00:23:05;100772.41;;;14.14;68.41
81232;BME280;70703;55.652;37.710;2023-09-19T00:23:20;100777.81;;;14.14;68.36
81232;BME280;70703;55.652;37.710;2023-09-19T00:23:33;100774.28;;;14.13;68.28
81232;BME280;70703;55.652;37.710;2023-09-19T00:23:46;100771.41;;;14.15;68.21
81232;BME280;70703;55.652;37.710;2023-09-19T00:23:58;100771.41;;;14.15;68.21
81232;BME280;70703;55.652;37.710;2023-09-19T00:24:09;100762.03;;;14.10;68.15
81232;BME280;70703;55.652;37.710;2023-09-19T00:24:23;100772.41;;;14.14;68.29
81232;BME280;70703;55.652;37.710;2023-09-19T00:24:36;100767.91;;;14.14;68.01
81232;BME280;70703;55.652;37.710;2023-09-19T00:24:50;100763.91;;;14.10;68.06
81232;BME280;70703;55.652;37.710;2023-09-19T00:25:03;100769.72;;;14.14;68.20
81232;BME280;70703;55.652;37.710;2023-09-19T00:25:16;100761.03;;;14.12;68.12
81232;BME280;70703;55.652;37.710;2023-09-19T00:25:28;100772.22;;;14.15;67.97
81232;BME280;70703;55.652;37.710;2023-09-19T00:25:40;100767.41;;;14.10;68.20
81232;BME280;70703;55.652;37.710;2023-09-19T00:25:53;100770.41;;;14.16;68.11
81232;BME280;70703;55.652;37.710;2023-09-19T00:26:08;100770.78;;;14.13;68.09
81232;BME280;70703;55.652;37.710;2023-09-19T00:26:21;100769.72;;;14.14;68.15
81232;BME280;70703;55.652;37.710;2023-09-19T00:26:34;100769.53;;;14.15;67.91
81232;BME280;70703;55.652;37.710;2023-09-19T00:26:46;100765.41;;;14.13;67.96
81232;BME280;70703;55.652;37.710;2023-09-19T00:27:00;100773.91;;;14.16;67.86
81232;BME280;70703;55.652;37.710;2023-09-19T00:27:12;100760.75;;;14.06;67.87
81232;BME280;70703;55.652;37.710;2023-09-19T00:27:23;100771.22;;;14.16;68.17
81232;BME280;70703;55.652;37.710;2023-09-19T00:27:35;100757.22;;;14.06;67.99
81232;BME280;70703;55.652;37.710;2023-09-19T00:27:49;100777.44;;;14.17;68.13
81232;BME280;70703;55.652;37.710;2023-09-19T00:28:02;100775.78;;;14.16;68.02
81232;BME280;70703;55.652;37.710;2023-09-19T00:28:14;100773.09;;;14.16;67.84
81232;BME280;70703;55.652;37.710;2023-09-19T00:28:28;100775.59;;;14.17;67.94
81232;BME280;70703;55.652;37.710;2023-09-19T00:28:41;100770.78;;;14.13;67.79
81232;BME280;70703;55.652;37.710;2023-09-19T00:28:54;100769.72;;;14.14;67.86
81232;BME280;70703;55.652;37.710;2023-09-19T00:29:05;100765.41;;;14.13;67.93
81232;BME280;70703;55.652;37.710;2023-09-19T00:29:17;100779.09;;;14.18;67.97
81232;BME280;70703;55.652;37.710;2023-09-19T00:29:31;100758.91;;;14.07;67.91
81232;BME280;70703;55.652;37.710;2023-09-19T00:29:44;100775.78;;;14.16;68.05
81232;BME280;70703;55.652;37.710;2023-09-19T00:29:57;100779.09;;;14.18;68.03
81232;BME280;70703;55.652;37.710;2023-09-19T00:30:10;100769.53;;;14.15;68.01
81232;BME280;70703;55.652;37.710;2023-09-19T00:30:27;100774.56;;;14.18;67.88
81232;BME280;70703;55.652;37.710;2023-09-19T00:30:38;100772.91;;;14.17;68.00
81232;BME280;70703;55.652;37.710;2023-09-19T00:30:51;100774.09;;;14.15;68.01
81232;BME280;70703;55.652;37.710;2023-09-19T00:31:07;100775.78;;;14.16;67.84
81232;BME280;70703;55.652;37.710;2023-09-19T00:31:19;100781.78;;;14.18;67.88
81232;BME280;70703;55.652;37.710;2023-09-19T00:31:36;100774.56;;;14.18;67.90
81232;BME280;70703;55.652;37.710;2023-09-19T00:31:48;100775.13;;;14.14;67.78
81232;BME280;70703;55.652;37.710;2023-09-19T00:32:00;100770.41;;;14.16;68.01
81232;BME280;70703;55.652;37.710;2023-09-19T00:32:12;100753.06;;;14.03;67.88
81232;BME280;70703;55.652;37.710;2023-09-19T00:32:26;100773.91;;;14.16;67.84
81232;BME280;70703;55.652;37.710;2023-09-19T00:32:42;100776.59;;;14.16;67.88
81232;BME280;70703;55.652;37.710;2023-09-19T00:32:54;100770.41;;;14.16;67.85
81232;BME280;70703;55.652;37.710;2023-09-19T00:33:06;100781.59;;;14.19;67.95
81232;BME280;70703;55.652;37.710;2023-09-19T00:33:18;100772.06;;;14.17;67.91
81232;BME280;70703;55.652;37.710;2023-09-19T00:33:30;100769.91;;;14.12;67.91
81232;BME280;70703;55.652;37.710;2023-09-19T00:33:44;100785.34;;;14.18;67.87
81232;BME280;70703;55.652;37.710;2023-09-19T00:33:56;100762.03;;;14.10;67.90
81232;BME280;70703;55.652;37.710;2023-09-19T00:34:11;100773.91;;;14.16;68.16
81232;BME280;70703;55.652;37.710;2023-09-19T00:34:24;100772.06;;;14.17;67.89
81232;BME280;70703;55.652;37.710;2023-09-19T00:34:36;100770.41;;;14.16;68.01
81232;BME280;70703;55.652;37.710;2023-09-19T00:34:49;100772.06;;;14.17;67.98
81232;BME280;70703;55.652;37.710;2023-09-19T00:35:01;100784.47;;;14.18;67.94
81232;BME280;70703;55.652;37.710;2023-09-19T00:35:14;100778.28;;;14.17;67.90
81232;BME280;70703;55.652;37.710;2023-09-19T00:35:26;100778.47;;;14.16;68.27
81232;BME280;70703;55.652;37.710;2023-09-19T00:35:38;100777.44;;;14.17;68.01
81232;BME280;70703;55.652;37.710;2023-09-19T00:35:51;100745.06;;;13.95;67.86
81232;BME280;70703;55.652;37.710;2023-09-19T00:36:04;100764.47;;;14.05;67.83
81232;BME280;70703;55.652;37.710;2023-09-19T00:36:18;100782.84;;;14.17;68.01
81232;BME280;70703;55.652;37.710;2023-09-19T00:36:30;100775.78;;;14.16;67.82
81232;BME280;70703;55.652;37.710;2023-09-19T00:36:42;100763.19;;;14.01;68.08
81232;BME280;70703;55.652;37.710;2023-09-19T00:36:55;100779.47;;;14.15;67.97
81232;BME280;70703;55.652;37.710;2023-09-19T00:37:06;100777.81;;;14.14;67.87
81232;BME280;70703;55.652;37.710;2023-09-19T00:37:19;100767.78;;;14.07;68.16
81232;BME280;70703;55.652;37.710;2023-09-19T00:37:30;100769.91;;;14.12;67.97
81232;BME280;70703;55.652;37.710;2023-09-19T00:37:42;100751.56;;;14.01;68.00
81232;BME280;70703;55.652;37.710;2023-09-19T00:37:55;100780.50;;;14.14;67.83
81232;BME280;70703;55.652;37.710;2023-09-19T00:38:07;100773.81;;;14.09;68.04
81232;BME280;70703;55.652;37.710;2023-09-19T00:38:19;100758.63;;;14.02;67.86
81232;BME280;70703;55.652;37.710;2023-09-19T00:38:33;100774.47;;;14.12;67.87
81232;BME280;70703;55.652;37.710;2023-09-19T00:38:44;100759.44;;;14.02;67.84
81232;BME280;70703;55.652;37.710;2023-09-19T00:38:58;100779.84;;;14.12;67.65
81232;BME280;70703;55.652;37.710;2023-09-19T00:39:09;100776.16;;;14.13;67.87
81232;BME280;70703;55.652;37.710;2023-09-19T00:39:21;100778.84;;;14.13;67.67
81232;BME280;70703;55.652;37.710;2023-09-19T00:39:32;100774.00;;;14.08;67.74
81232;BME280;70703;55.652;37.710;2023-09-19T00:39:44;100776.50;;;14.09;67.79
81232;BME280;70703;55.652;37.710;2023-09-19T00:39:56;100777.72;;;14.07;67.83
81232;BME280;70703;55.652;37.710;2023-09-19T00:40:08;100767.69;;;14.01;67.84
81232;BME280;70703;55.652;37.710;2023-09-19T00:40:23;100775.03;;;14.07;67.73
81232;BME280;70703;55.652;37.710;2023-09-19T00:40:35;100759.81;;;13.99;67.84
81232;BME280;70703;55.652;37.710;2023-09-19T00:40:49;100778.56;;;14.07;67.63
81232;BME280;70703;55.652;37.710;2023-09-19T00:41:00;100777.72;;;14.07;67.73
81232;BME280;70703;55.652;37.710;2023-09-19T00:41:12;100775.88;;;14.07;67.46
81232;BME280;70703;55.652;37.710;2023-09-19T00:41:23;100764.81;;;14.02;67.52
81232;BME280;70703;55.652;37.710;2023-09-19T00:41:36;100769.84;;;14.05;67.52
81232;BME280;70703;55.652;37.710;2023-09-19T00:41:49;100765.66;;;14.03;67.61
81232;BME280;70703;55.652;37.710;2023-09-19T00:42:02;100776.88;;;14.06;67.57
81232;BME280;70703;55.652;37.710;2023-09-19T00:42:18;100773.38;;;14.06;67.35
81232;BME280;70703;55.652;37.710;2023-09-19T00:42:30;100771.50;;;14.06;67.38
81232;BME280;70703;55.652;37.710;2023-09-19T00:42:43;100776.88;;;14.06;67.31
81232;BME280;70703;55.652;37.710;2023-09-19T00:42:57;100771.88;;;14.03;67.50
81232;BME280;70703;55.652;37.710;2023-09-19T00:43:11;100756.50;;;13.97;67.48
81232;BME280;70703;55.652;37.710;2023-09-19T00:43:23;100775.22;;;14.05;67.38
81232;BME280;70703;55.652;37.710;2023-09-19T00:43:37;100772.69;;;14.04;67.45
81232;BME280;70703;55.652;37.710;2023-09-19T00:43:52;100773.19;;;14.07;67.38
81232;BME280;70703;55.652;37.710;2023-09-19T00:44:05;100774.38;;;14.05;67.39
81232;BME280;70703;55.652;37.710;2023-09-19T00:44:18;100778.75;;;14.06;67.49
81232;BME280;70703;55.652;37.710;2023-09-19T00:44:32;100775.22;;;14.05;67.35
81232;BME280;70703;55.652;37.710;2023-09-19T00:44:45;100731.16;;;13.76;67.45
81232;BME280;70703;55.652;37.710;2023-09-19T00:44:57;100781.63;;;14.04;67.42
81232;BME280;70703;55.652;37.710;2023-09-19T00:45:10;100735.91;;;13.74;67.50
81232;BME280;70703;55.652;37.710;2023-09-19T00:45:23;100745.91;;;13.81;67.80
81232;BME280;70703;55.652;37.710;2023-09-19T00:45:37;100776.44;;;14.03;67.47
81232;BME280;70703;55.652;37.710;2023-09-19T00:45:54;100775.56;;;14.02;67.43
81232;BME280;70703;55.652;37.710;2023-09-19T00:46:06;100778.94;;;14.04;67.36
81232;BME280;70703;55.652;37.710;2023-09-19T00:46:18;100777.25;;;14.03;67.33
81232;BME280;70703;55.652;37.710;2023-09-19T00:46:31;100771.25;;;14.01;67.30
81232;BME280;70703;55.652;37.710;2023-09-19T00:46:43;100781.63;;;14.04;67.51
81232;BME280;70703;55.652;37.710;2023-09-19T00:46:54;100758.44;;;13.88;67.45
81232;BME280;70703;55.652;37.710;2023-09-19T00:47:07;100779.50;;;14.00;67.36
81232;BME280;70703;55.652;37.710;2023-09-19T00:47:20;100741.28;;;13.74;67.50
81232;BME280;70703;55.652;37.710;2023-09-19T00:47:32;100770.94;;;13.96;67.48
81232;BME280;70703;55.652;37.710;2023-09-19T00:47:47;100781.34;;;13.99;67.63
81232;BME280;70703;55.652;37.710;2023-09-19T00:48:02;100777.63;;;14.00;67.35
81232;BME280;70703;55.652;37.710;2023-09-19T00:48:15;100775.97;;;13.99;67.36
81232;BME280;70703;55.652;37.710;2023-09-19T00:48:28;100777.16;;;13.97;67.42
81232;BME280;70703;55.652;37.710;2023-09-19T00:48:41;100777.63;;;14.00;67.42
81232;BME280;70703;55.652;37.710;2023-09-19T00:48:54;100770.94;;;13.96;67.36
81232;BME280;70703;55.652;37.710;2023-09-19T00:49:08;100758.44;;;13.88;67.24
81232;BME280;70703;55.652;37.710;2023-09-19T00:49:21;100762.59;;;13.91;67.28
81232;BME280;70703;55.652;37.710;2023-09-19T00:49:34;100779.31;;;14.01;67.19
81232;BME280;70703;55.652;37.710;2023-09-19T00:49:49;100767.25;;;13.97;67.27
81232;BME280;70703;55.652;37.710;2023-09-19T00:50:00;100772.06;;;14.02;67.22
81232;BME280;70703;55.652;37.710;2023-09-19T00:50:16;100782.00;;;14.01;67.39
81232;BME280;70703;55.652;37.710;2023-09-19T00:50:28;100777.63;;;14.00;67.04
81232;BME280;70703;55.652;37.710;2023-09-19T00:50:42;100777.63;;;14.00;67.14
81232;BME280;70703;55.652;37.710;2023-09-19T00:50:55;100739.03;;;13.78;67.03
81232;BME280;70703;55.652;37.710;2023-09-19T00:51:09;100717.56;;;13.63;67.05
81232;BME280;70703;55.652;37.710;2023-09-19T00:51:22;100784.88;;;14.00;67.29
81232;BME280;70703;55.652;37.710;2023-09-19T00:51:34;100782.19;;;14.00;67.42
81232;BME280;70703;55.652;37.710;2023-09-19T00:51:48;100783.00;;;14.00;67.18
81232;BME280;70703;55.652;37.710;2023-09-19T00:52:00;100781.34;;;13.99;67.41
81232;BME280;70703;55.652;37.710;2023-09-19T00:52:12;100782.19;;;14.00;67.33
81232;BME280;70703;55.652;37.710;2023-09-19T00:52:23;100764.66;;;13.89;67.42
81232;BME280;70703;55.652;37.710;2023-09-19T00:52:36;100775.31;;;13.97;67.51
81232;BME280;70703;55.652;37.710;2023-09-19T00:52:53;100775.69;;;13.94;67.31
81232;BME280;70703;55.652;37.710;2023-09-19T00:53:06;100785.69;;;14.00;67.42
81232;BME280;70703;55.652;37.710;2023-09-19T00:53:22;100762.34;;;13.86;67.41
81232;BME280;70703;55.652;37.710;2023-09-19T00:53:36;100772.63;;;13.97;67.44
81232;BME280;70703;55.652;37.710;2023-09-19T00:53:51;100778.00;;;13.97;67.31
81232;BME280;70703;55.652;37.710;2023-09-19T00:54:04;100769.47;;;13.93;67.20
81232;BME280;70703;55.652;37.710;2023-09-19T00:54:16;100779.31;;;14.01;67.47
81232;BME280;70703;55.652;37.710;2023-09-19T00:54:30;100782.19;;;14.00;67.21
81232;BME280;70703;55.652;37.710;2023-09-19T00:54:42;100781.34;;;13.99;67.41
81232;BME280;70703;55.652;37.710;2023-09-19T00:54:55;100780.31;;;14.00;67.38
81232;BME280;70703;55.652;37.710;2023-09-19T00:55:09;100781.72;;;13.96;67.39
81232;BME280;70703;55.652;37.710;2023-09-19T00:55:20;100781.53;;;13.98;67.44
81232;BME280;70703;55.652;37.710;2023-09-19T00:55:32;100773.34;;;13.91;67.39
81232;BME280;70703;55.652;37.710;2023-09-19T00:55:45;100778.84;;;13.98;67.41
81232;BME280;70703;55.652;37.710;2023-09-19T00:55:57;100751.66;;;13.78;67.48
81232;BME280;70703;55.652;37.710;2023-09-19T00:56:09;100787.56;;;14.00;67.48
81232;BME280;70703;55.652;37.710;2023-09-19T00:56:21;100779.66;;;13.98;67.49
81232;BME280;70703;55.652;37.710;2023-09-19T00:56:34;100780.50;;;13.99;67.69
81232;BME280;70703;55.652;37.710;2023-09-19T00:56:46;100788.38;;;14.00;67.30
81232;BME280;70703;55.652;37.710;2023-09-19T00:56:58;100786.09;;;13.97;67.49
81232;BME280;70703;55.652;37.710;2023-09-19T00:57:10;100749.63;;;13.80;67.57
81232;BME280;70703;55.652;37.710;2023-09-19T00:57:23;100782.34;;;13.98;67.67
81232;BME280;70703;55.652;37.710;2023-09-19T00:57:36;100783.38;;;13.97;67.68
81232;BME280;70703;55.652;37.710;2023-09-19T00:57:49;100780.41;;;13.92;67.72
81232;BME280;70703;55.652;37.710;2023-09-19T00:58:01;100779.41;;;13.93;67.68
81232;BME280;70703;55.652;37.710;2023-09-19T00:58:13;100793.09;;;13.98;67.68
81232;BME280;70703;55.652;37.710;2023-09-19T00:58:25;100779.66;;;13.98;67.66
81232;BME280;70703;55.652;37.710;2023-09-19T00:58:37;100781.72;;;13.96;67.81
81232;BME280;70703;55.652;37.710;2023-09-19T00:58:49;100786.91;;;13.98;67.75
81232;BME280;70703;55.652;37.710;2023-09-19T00:59:03;100789.41;;;13.99;67.66
81232;BME280;70703;55.652;37.710;2023-09-19T00:59:15;100765.03;;;13.86;67.75
81232;BME280;70703;55.652;37.710;2023-09-19T00:59:28;100785.03;;;13.98;67.70
81232;BME280;70703;55.652;37.710;2023-09-19T00:59:42;100782.53;;;13.97;67.67
81232;BME280;70703;55.652;37.710;2023-09-19T00:59:55;100794.59;;;14.01;67.79
81232;BME280;70703;55.652;37.710;2023-09-19T01:00:09;100764.34;;;13.84;67.69
81232;BME280;70703;55.652;37.710;2023-09-19T01:00:28;100787.56;;;14.00;67.67
81232;BME280;70703;55.652;37.710;2023-09-19T01:00:40;100789.41;;;13.99;67.80
81232;BME280;70703;55.652;37.710;2023-09-19T01:00:57;100787.72;;;13.98;67.69
81232;BME280;70703;55.652;37.710;2023-09-19T01:01:16;100787.09;;;13.96;67.84
81232;BME280;70703;55.652;37.710;2023-09-19T01:01:29;100786.72;;;13.99;67.67
81232;BME280;70703;55.652;37.710;2023-09-19T01:01:46;100783.38;;;13.97;67.70
81232;BME280;70703;55.652;37.710;2023-09-19T01:02:06;100779.22;;;13.95;67.69
81232;BME280;70703;55.652;37.710;2023-09-19T01:02:19;100775.03;;;13.92;67.77
81232;BME280;70703;55.652;37.710;2023-09-19T01:02:32;100792.09;;;13.99;67.74
81232;BME280;70703;55.652;37.710;2023-09-19T01:02:44;100785.03;;;13.98;67.75
81232;BME280;70703;55.652;37.710;2023-09-19T01:02:57;100788.78;;;13.97;67.82
81232;BME280;70703;55.652;37.710;2023-09-19T01:03:10;100771.53;;;13.91;67.92
81232;BME280;70703;55.652;37.710;2023-09-19T01:03:24;100785.03;;;13.98;67.81
81232;BME280;70703;55.652;37.710;2023-09-19T01:03:37;100786.72;;;13.99;67.92
81232;BME280;70703;55.652;37.710;2023-09-19T01:03:48;100785.22;;;13.97;67.86
81232;BME280;70703;55.652;37.710;2023-09-19T01:04:00;100793.78;;;14.00;68.07
81232;BME280;70703;55.652;37.710;2023-09-19T01:04:13;100788.78;;;13.97;67.83
81232;BME280;70703;55.652;37.710;2023-09-19T01:04:25;100792.09;;;13.99;67.93
81232;BME280;70703;55.652;37.710;2023-09-19T01:04:37;100786.09;;;13.97;67.87
81232;BME280;70703;55.652;37.710;2023-09-19T01:04:49;100760.03;;;13.83;67.93
81232;BME280;70703;55.652;37.710;2023-09-19T01:05:03;100747.50;;;13.75;67.96
81232;BME280;70703;55.652;37.710;2023-09-19T01:05:16;100784.22;;;13.98;67.79
81232;BME280;70703;55.652;37.710;2023-09-19T01:05:30;100794.16;;;13.97;67.96
81232;BME280;70703;55.652;37.710;2023-09-19T01:05:42;100785.41;;;13.95;67.99
81232;BME280;70703;55.652;37.710;2023-09-19T01:05:53;100776.41;;;13.88;67.92
81232;BME280;70703;55.652;37.710;2023-09-19T01:06:06;100777.53;;;13.93;68.25
81232;BME280;70703;55.652;37.710;2023-09-19T01:06:18;100781.22;;;13.92;68.03
81232;BME280;70703;55.652;37.710;2023-09-19T01:06:30;100765.75;;;13.80;68.00
81232;BME280;70703;55.652;37.710;2023-09-19T01:06:42;100783.75;;;13.94;68.15
81232;BME280;70703;55.652;37.710;2023-09-19T01:06:57;100788.47;;;13.92;68.17
81232;BME280;70703;55.652;37.710;2023-09-19T01:07:09;100780.41;;;13.92;68.16
81232;BME280;70703;55.652;37.710;2023-09-19T01:07:21;100789.50;;;13.91;68.01
81232;BME280;70703;55.652;37.710;2023-09-19T01:07:34;100785.16;;;13.90;68.21